sensor_id;sensor_type;location;lat;lon;timestamp;P1;durP1;ratioP1;P2;durP2;ratioP2
7432;SDS011;32233;49.500;7.764;2024-03-07T00:00:06;57.13;;;30.97;;
7432;SDS011;32233;49.500;7.764;2024-03-07T00:02:50;56.57;;;30.03;;
7432;SDS011;32233;49.500;7.764;2024-03-07T00:05:19;55.63;;;31.47;;
7432;SDS011;32233;49.500;7.764;2024-03-07T00:07:47;55.87;;;31.13;;
7432;SDS011;32233;49.500;7.764;2024-03-07T00:10:14;56.10;;;30.77;;
7432;SDS011;32233;49.500;7.764;2024-03-07T00:12:42;54.17;;;29.50;;
7432;SDS011;32233;49.500;7.764;2024-03-07T00:15:09;60.37;;;32.00;;
7432;SDS011;32233;49.500;7.764;2024-03-07T00:17:37;55.27;;;31.80;;
7432;SDS011;32233;49.500;7.764;2024-03-07T00:20:05;58.27;;;31.73;;
7432;SDS011;32233;49.500;7.764;2024-03-07T00:22:36;55.83;;;31.27;;
7432;SDS011;32233;49.500;7.764;2024-03-07T00:25:02;55.23;;;30.77;;
7432;SDS011;32233;49.500;7.764;2024-03-07T00:27:32;55.60;;;31.10;;
7432;SDS011;32233;49.500;7.764;2024-03-07T00:29:59;57.13;;;32.00;;
7432;SDS011;32233;49.500;7.764;2024-03-07T00:32:25;56.47;;;31.43;;
7432;SDS011;32233;49.500;7.764;2024-03-07T00:34:56;57.93;;;31.83;;
7432;SDS011;32233;49.500;7.764;2024-03-07T00:37:25;58.03;;;31.53;;
7432;SDS011;32233;49.500;7.764;2024-03-07T00:39:52;58.47;;;32.13;;
7432;SDS011;32233;49.500;7.764;2024-03-07T00:42:18;60.00;;;32.67;;
7432;SDS011;32233;49.500;7.764;2024-03-07T00:44:45;58.97;;;33.33;;
7432;SDS011;32233;49.500;7.764;2024-03-07T00:47:12;55.13;;;30.87;;
7432;SDS011;32233;49.500;7.764;2024-03-07T00:49:38;56.83;;;31.97;;
7432;SDS011;32233;49.500;7.764;2024-03-07T00:52:05;54.73;;;31.17;;
7432;SDS011;32233;49.500;7.764;2024-03-07T00:54:32;55.73;;;30.73;;
7432;SDS011;32233;49.500;7.764;2024-03-07T00:56:58;58.90;;;32.40;;
7432;SDS011;32233;49.500;7.764;2024-03-07T00:59:26;59.60;;;31.73;;
7432;SDS011;32233;49.500;7.764;2024-03-07T01:01:52;58.47;;;32.23;;
7432;SDS011;32233;49.500;7.764;2024-03-07T01:04:20;57.27;;;31.03;;
7432;SDS011;32233;49.500;7.764;2024-03-07T01:06:46;56.93;;;31.33;;
7432;SDS011;32233;49.500;7.764;2024-03-07T01:09:13;58.47;;;32.83;;
7432;SDS011;32233;49.500;7.764;2024-03-07T01:11:42;59.10;;;30.43;;
7432;SDS011;32233;49.500;7.764;2024-03-07T01:14:09;57.47;;;30.97;;
7432;SDS011;32233;49.500;7.764;2024-03-07T01:16:36;60.13;;;32.33;;
7432;SDS011;32233;49.500;7.764;2024-03-07T01:19:03;60.23;;;32.57;;
7432;SDS011;32233;49.500;7.764;2024-03-07T01:21:35;60.13;;;32.27;;
7432;SDS011;32233;49.500;7.764;2024-03-07T01:24:04;57.87;;;31.57;;
7432;SDS011;32233;49.500;7.764;2024-03-07T01:26:32;59.43;;;32.00;;
7432;SDS011;32233;49.500;7.764;2024-03-07T01:29:01;59.47;;;32.17;;
7432;SDS011;32233;49.500;7.764;2024-03-07T01:31:28;55.87;;;31.20;;
7432;SDS011;32233;49.500;7.764;2024-03-07T01:33:54;58.47;;;32.27;;
7432;SDS011;32233;49.500;7.764;2024-03-07T01:36:21;57.50;;;31.33;;
7432;SDS011;32233;49.500;7.764;2024-03-07T01:38:48;60.53;;;31.07;;
7432;SDS011;32233;49.500;7.764;2024-03-07T01:41:15;58.30;;;33.03;;
7432;SDS011;32233;49.500;7.764;2024-03-07T01:43:42;59.37;;;31.67;;
7432;SDS011;32233;49.500;7.764;2024-03-07T01:46:09;56.43;;;31.53;;
7432;SDS011;32233;49.500;7.764;2024-03-07T01:48:37;57.10;;;32.60;;
7432;SDS011;32233;49.500;7.764;2024-03-07T01:51:04;63.60;;;33.73;;
7432;SDS011;32233;49.500;7.764;2024-03-07T01:53:32;65.37;;;33.83;;
7432;SDS011;32233;49.500;7.764;2024-03-07T01:55:59;59.70;;;32.00;;
7432;SDS011;32233;49.500;7.764;2024-03-07T01:58:28;59.00;;;32.13;;
7432;SDS011;32233;49.500;7.764;2024-03-07T02:00:56;59.97;;;31.63;;
7432;SDS011;32233;49.500;7.764;2024-03-07T02:03:23;61.23;;;31.73;;
7432;SDS011;32233;49.500;7.764;2024-03-07T02:05:49;59.20;;;31.47;;
7432;SDS011;32233;49.500;7.764;2024-03-07T02:08:17;62.33;;;33.50;;
7432;SDS011;32233;49.500;7.764;2024-03-07T02:10:45;57.97;;;32.37;;
7432;SDS011;32233;49.500;7.764;2024-03-07T02:13:12;56.87;;;32.27;;
7432;SDS011;32233;49.500;7.764;2024-03-07T02:15:39;59.10;;;32.10;;
7432;SDS011;32233;49.500;7.764;2024-03-07T02:18:05;57.73;;;31.53;;
7432;SDS011;32233;49.500;7.764;2024-03-07T02:20:32;65.23;;;33.27;;
7432;SDS011;32233;49.500;7.764;2024-03-07T02:22:59;61.87;;;32.67;;
7432;SDS011;32233;49.500;7.764;2024-03-07T02:25:25;59.50;;;32.33;;
7432;SDS011;32233;49.500;7.764;2024-03-07T02:27:52;62.87;;;32.30;;
7432;SDS011;32233;49.500;7.764;2024-03-07T02:30:18;57.70;;;31.33;;
7432;SDS011;32233;49.500;7.764;2024-03-07T02:32:46;59.80;;;32.73;;
7432;SDS011;32233;49.500;7.764;2024-03-07T02:35:18;63.53;;;32.70;;
7432;SDS011;32233;49.500;7.764;2024-03-07T02:37:45;58.70;;;31.73;;
7432;SDS011;32233;49.500;7.764;2024-03-07T02:40:14;59.33;;;31.97;;
7432;SDS011;32233;49.500;7.764;2024-03-07T02:42:42;57.13;;;31.57;;
7432;SDS011;32233;49.500;7.764;2024-03-07T02:45:09;61.03;;;32.50;;
7432;SDS011;32233;49.500;7.764;2024-03-07T02:47:41;58.40;;;29.97;;
7432;SDS011;32233;49.500;7.764;2024-03-07T02:50:10;65.20;;;33.43;;
7432;SDS011;32233;49.500;7.764;2024-03-07T02:52:37;59.27;;;32.37;;
7432;SDS011;32233;49.500;7.764;2024-03-07T02:55:05;58.90;;;30.63;;
7432;SDS011;32233;49.500;7.764;2024-03-07T02:57:32;59.57;;;32.67;;
7432;SDS011;32233;49.500;7.764;2024-03-07T02:59:59;59.03;;;31.83;;
7432;SDS011;32233;49.500;7.764;2024-03-07T03:02:25;56.83;;;30.50;;
7432;SDS011;32233;49.500;7.764;2024-03-07T03:04:52;62.97;;;31.67;;
7432;SDS011;32233;49.500;7.764;2024-03-07T03:07:20;57.67;;;32.47;;
7432;SDS011;32233;49.500;7.764;2024-03-07T03:09:47;58.30;;;32.67;;
7432;SDS011;32233;49.500;7.764;2024-03-07T03:12:15;55.73;;;30.43;;
7432;SDS011;32233;49.500;7.764;2024-03-07T03:14:42;59.13;;;31.97;;
7432;SDS011;32233;49.500;7.764;2024-03-07T03:17:09;59.53;;;31.17;;
7432;SDS011;32233;49.500;7.764;2024-03-07T03:19:37;62.07;;;32.03;;
7432;SDS011;32233;49.500;7.764;2024-03-07T03:22:04;60.13;;;31.40;;
7432;SDS011;32233;49.500;7.764;2024-03-07T03:24:31;58.00;;;31.30;;
7432;SDS011;32233;49.500;7.764;2024-03-07T03:26:57;59.90;;;31.40;;
7432;SDS011;32233;49.500;7.764;2024-03-07T03:29:24;55.43;;;30.70;;
7432;SDS011;32233;49.500;7.764;2024-03-07T03:31:51;63.60;;;33.00;;
7432;SDS011;32233;49.500;7.764;2024-03-07T03:34:17;64.53;;;32.67;;
7432;SDS011;32233;49.500;7.764;2024-03-07T03:36:44;60.63;;;32.20;;
7432;SDS011;32233;49.500;7.764;2024-03-07T03:39:10;62.50;;;33.70;;
7432;SDS011;32233;49.500;7.764;2024-03-07T03:41:39;61.67;;;31.97;;
7432;SDS011;32233;49.500;7.764;2024-03-07T03:44:06;61.00;;;31.43;;
7432;SDS011;32233;49.500;7.764;2024-03-07T03:46:34;61.87;;;32.30;;
7432;SDS011;32233;49.500;7.764;2024-03-07T03:49:00;64.37;;;32.63;;
7432;SDS011;32233;49.500;7.764;2024-03-07T03:51:27;61.57;;;32.10;;
7432;SDS011;32233;49.500;7.764;2024-03-07T03:53:54;61.03;;;33.10;;
7432;SDS011;32233;49.500;7.764;2024-03-07T03:56:21;61.33;;;31.07;;
7432;SDS011;32233;49.500;7.764;2024-03-07T03:58:47;62.83;;;31.97;;
7432;SDS011;32233;49.500;7.764;2024-03-07T04:01:14;60.63;;;31.70;;
7432;SDS011;32233;49.500;7.764;2024-03-07T04:03:42;62.03;;;32.07;;
7432;SDS011;32233;49.500;7.764;2024-03-07T04:06:13;63.10;;;32.87;;
7432;SDS011;32233;49.500;7.764;2024-03-07T04:08:40;66.23;;;32.67;;
7432;SDS011;32233;49.500;7.764;2024-03-07T04:11:07;64.90;;;32.33;;
7432;SDS011;32233;49.500;7.764;2024-03-07T04:13:36;64.27;;;32.73;;
7432;SDS011;32233;49.500;7.764;2024-03-07T04:16:03;60.83;;;32.57;;
7432;SDS011;32233;49.500;7.764;2024-03-07T04:18:30;62.23;;;32.77;;
7432;SDS011;32233;49.500;7.764;2024-03-07T04:20:58;64.57;;;32.67;;
7432;SDS011;32233;49.500;7.764;2024-03-07T04:23:25;65.77;;;33.10;;
7432;SDS011;32233;49.500;7.764;2024-03-07T04:25:52;68.47;;;32.87;;
7432;SDS011;32233;49.500;7.764;2024-03-07T04:28:18;70.07;;;35.23;;
7432;SDS011;32233;49.500;7.764;2024-03-07T04:30:45;67.37;;;34.93;;
7432;SDS011;32233;49.500;7.764;2024-03-07T04:33:12;67.67;;;34.00;;
7432;SDS011;32233;49.500;7.764;2024-03-07T04:35:39;67.27;;;33.93;;
7432;SDS011;32233;49.500;7.764;2024-03-07T04:38:05;65.70;;;33.30;;
7432;SDS011;32233;49.500;7.764;2024-03-07T04:40:37;68.77;;;33.73;;
7432;SDS011;32233;49.500;7.764;2024-03-07T04:43:05;68.27;;;34.80;;
7432;SDS011;32233;49.500;7.764;2024-03-07T04:45:31;72.03;;;35.10;;
7432;SDS011;32233;49.500;7.764;2024-03-07T04:47:58;73.10;;;33.93;;
7432;SDS011;32233;49.500;7.764;2024-03-07T04:50:25;75.53;;;36.03;;
7432;SDS011;32233;49.500;7.764;2024-03-07T04:52:52;70.30;;;35.37;;
7432;SDS011;32233;49.500;7.764;2024-03-07T04:55:19;72.57;;;34.23;;
7432;SDS011;32233;49.500;7.764;2024-03-07T04:57:46;75.57;;;35.07;;
7432;SDS011;32233;49.500;7.764;2024-03-07T05:00:13;71.73;;;34.63;;
7432;SDS011;32233;49.500;7.764;2024-03-07T05:02:44;71.83;;;35.33;;
7432;SDS011;32233;49.500;7.764;2024-03-07T05:05:12;73.00;;;34.63;;
7432;SDS011;32233;49.500;7.764;2024-03-07T05:07:39;74.40;;;35.27;;
7432;SDS011;32233;49.500;7.764;2024-03-07T05:10:06;72.60;;;35.03;;
7432;SDS011;32233;49.500;7.764;2024-03-07T05:12:34;72.73;;;34.13;;
7432;SDS011;32233;49.500;7.764;2024-03-07T05:15:01;75.20;;;34.60;;
7432;SDS011;32233;49.500;7.764;2024-03-07T05:17:30;71.37;;;34.93;;
7432;SDS011;32233;49.500;7.764;2024-03-07T05:20:00;71.40;;;34.17;;
7432;SDS011;32233;49.500;7.764;2024-03-07T05:22:27;69.93;;;34.60;;
7432;SDS011;32233;49.500;7.764;2024-03-07T05:24:56;75.00;;;35.70;;
7432;SDS011;32233;49.500;7.764;2024-03-07T05:27:25;68.07;;;33.73;;
7432;SDS011;32233;49.500;7.764;2024-03-07T05:29:51;67.33;;;33.57;;
7432;SDS011;32233;49.500;7.764;2024-03-07T05:32:22;68.97;;;33.67;;
7432;SDS011;32233;49.500;7.764;2024-03-07T05:34:53;75.43;;;34.67;;
7432;SDS011;32233;49.500;7.764;2024-03-07T05:37:20;78.00;;;34.87;;
7432;SDS011;32233;49.500;7.764;2024-03-07T05:39:48;70.13;;;33.37;;
7432;SDS011;32233;49.500;7.764;2024-03-07T05:42:15;74.03;;;34.60;;
7432;SDS011;32233;49.500;7.764;2024-03-07T05:44:41;74.07;;;36.20;;
7432;SDS011;32233;49.500;7.764;2024-03-07T05:47:08;75.97;;;36.27;;
7432;SDS011;32233;49.500;7.764;2024-03-07T05:49:35;74.90;;;34.90;;
7432;SDS011;32233;49.500;7.764;2024-03-07T05:52:06;72.80;;;34.43;;
7432;SDS011;32233;49.500;7.764;2024-03-07T05:54:32;72.73;;;34.90;;
7432;SDS011;32233;49.500;7.764;2024-03-07T05:56:59;72.47;;;34.60;;
7432;SDS011;32233;49.500;7.764;2024-03-07T05:59:27;70.10;;;34.00;;
7432;SDS011;32233;49.500;7.764;2024-03-07T06:01:59;72.50;;;34.30;;
7432;SDS011;32233;49.500;7.764;2024-03-07T06:04:26;74.47;;;35.03;;
7432;SDS011;32233;49.500;7.764;2024-03-07T06:06:53;75.47;;;35.90;;
7432;SDS011;32233;49.500;7.764;2024-03-07T06:09:20;74.47;;;35.63;;
7432;SDS011;32233;49.500;7.764;2024-03-07T06:11:50;78.20;;;35.47;;
7432;SDS011;32233;49.500;7.764;2024-03-07T06:14:17;74.30;;;34.63;;
7432;SDS011;32233;49.500;7.764;2024-03-07T06:16:44;71.70;;;33.90;;
7432;SDS011;32233;49.500;7.764;2024-03-07T06:19:11;77.90;;;35.50;;
7432;SDS011;32233;49.500;7.764;2024-03-07T06:21:38;83.37;;;36.50;;
7432;SDS011;32233;49.500;7.764;2024-03-07T06:24:06;276.43;;;114.70;;
7432;SDS011;32233;49.500;7.764;2024-03-07T06:26:36;164.03;;;70.70;;
7432;SDS011;32233;49.500;7.764;2024-03-07T06:29:04;82.77;;;41.60;;
7432;SDS011;32233;49.500;7.764;2024-03-07T06:31:34;79.60;;;39.17;;
7432;SDS011;32233;49.500;7.764;2024-03-07T06:34:03;81.17;;;47.60;;
7432;SDS011;32233;49.500;7.764;2024-03-07T06:36:30;86.03;;;51.13;;
7432;SDS011;32233;49.500;7.764;2024-03-07T06:38:57;70.03;;;34.80;;
7432;SDS011;32233;49.500;7.764;2024-03-07T06:41:24;80.67;;;43.37;;
7432;SDS011;32233;49.500;7.764;2024-03-07T06:43:51;71.13;;;35.70;;
7432;SDS011;32233;49.500;7.764;2024-03-07T06:46:21;70.23;;;34.07;;
7432;SDS011;32233;49.500;7.764;2024-03-07T06:48:48;72.37;;;34.53;;
7432;SDS011;32233;49.500;7.764;2024-03-07T06:51:14;65.93;;;33.33;;
7432;SDS011;32233;49.500;7.764;2024-03-07T06:53:44;66.23;;;33.77;;
7432;SDS011;32233;49.500;7.764;2024-03-07T06:56:14;67.00;;;33.50;;
7432;SDS011;32233;49.500;7.764;2024-03-07T06:58:43;64.83;;;32.47;;
7432;SDS011;32233;49.500;7.764;2024-03-07T07:01:14;61.57;;;32.20;;
7432;SDS011;32233;49.500;7.764;2024-03-07T07:03:44;65.43;;;33.10;;
7432;SDS011;32233;49.500;7.764;2024-03-07T07:06:12;61.63;;;31.30;;
7432;SDS011;32233;49.500;7.764;2024-03-07T07:08:38;65.23;;;32.60;;
7432;SDS011;32233;49.500;7.764;2024-03-07T07:11:05;61.10;;;31.07;;
7432;SDS011;32233;49.500;7.764;2024-03-07T07:13:32;60.43;;;29.83;;
7432;SDS011;32233;49.500;7.764;2024-03-07T07:15:59;57.07;;;30.47;;
7432;SDS011;32233;49.500;7.764;2024-03-07T07:18:26;57.10;;;30.60;;
7432;SDS011;32233;49.500;7.764;2024-03-07T07:20:53;50.73;;;27.67;;
7432;SDS011;32233;49.500;7.764;2024-03-07T07:23:20;48.97;;;28.00;;
7432;SDS011;32233;49.500;7.764;2024-03-07T07:25:47;47.33;;;28.40;;
7432;SDS011;32233;49.500;7.764;2024-03-07T07:28:13;46.40;;;26.87;;
7432;SDS011;32233;49.500;7.764;2024-03-07T07:30:42;45.23;;;26.57;;
7432;SDS011;32233;49.500;7.764;2024-03-07T07:33:11;43.63;;;25.53;;
7432;SDS011;32233;49.500;7.764;2024-03-07T07:35:39;46.60;;;26.67;;
7432;SDS011;32233;49.500;7.764;2024-03-07T07:38:07;45.50;;;25.83;;
7432;SDS011;32233;49.500;7.764;2024-03-07T07:40:38;45.67;;;25.87;;
7432;SDS011;32233;49.500;7.764;2024-03-07T07:43:05;44.50;;;25.80;;
7432;SDS011;32233;49.500;7.764;2024-03-07T07:45:32;46.77;;;25.67;;
7432;SDS011;32233;49.500;7.764;2024-03-07T07:48:02;49.33;;;26.40;;
7432;SDS011;32233;49.500;7.764;2024-03-07T07:50:29;45.73;;;25.67;;
7432;SDS011;32233;49.500;7.764;2024-03-07T07:52:56;44.40;;;26.03;;
7432;SDS011;32233;49.500;7.764;2024-03-07T07:55:25;49.33;;;25.70;;
7432;SDS011;32233;49.500;7.764;2024-03-07T07:57:55;43.37;;;24.67;;
7432;SDS011;32233;49.500;7.764;2024-03-07T08:00:24;44.33;;;25.50;;
7432;SDS011;32233;49.500;7.764;2024-03-07T08:02:52;48.03;;;25.27;;
7432;SDS011;32233;49.500;7.764;2024-03-07T08:05:21;47.73;;;25.73;;
7432;SDS011;32233;49.500;7.764;2024-03-07T08:07:51;45.10;;;24.40;;
7432;SDS011;32233;49.500;7.764;2024-03-07T08:10:19;45.97;;;25.07;;
7432;SDS011;32233;49.500;7.764;2024-03-07T08:12:47;41.73;;;24.27;;
7432;SDS011;32233;49.500;7.764;2024-03-07T08:15:14;44.53;;;24.23;;
7432;SDS011;32233;49.500;7.764;2024-03-07T08:17:45;42.27;;;22.77;;
7432;SDS011;32233;49.500;7.764;2024-03-07T08:20:14;43.43;;;23.73;;
7432;SDS011;32233;49.500;7.764;2024-03-07T08:22:42;38.70;;;22.80;;
7432;SDS011;32233;49.500;7.764;2024-03-07T08:25:13;39.93;;;23.53;;
7432;SDS011;32233;49.500;7.764;2024-03-07T08:27:44;37.13;;;22.53;;
7432;SDS011;32233;49.500;7.764;2024-03-07T08:30:12;41.53;;;23.00;;
7432;SDS011;32233;49.500;7.764;2024-03-07T08:32:45;40.33;;;23.37;;
7432;SDS011;32233;49.500;7.764;2024-03-07T08:35:13;37.40;;;23.27;;
7432;SDS011;32233;49.500;7.764;2024-03-07T08:37:42;36.13;;;22.27;;
7432;SDS011;32233;49.500;7.764;2024-03-07T08:40:11;37.73;;;22.50;;
7432;SDS011;32233;49.500;7.764;2024-03-07T08:42:49;35.47;;;22.00;;
7432;SDS011;32233;49.500;7.764;2024-03-07T08:45:27;34.20;;;21.37;;
7432;SDS011;32233;49.500;7.764;2024-03-07T08:47:56;34.83;;;22.60;;
7432;SDS011;32233;49.500;7.764;2024-03-07T08:50:25;32.10;;;21.13;;
7432;SDS011;32233;49.500;7.764;2024-03-07T08:52:54;34.00;;;21.73;;
7432;SDS011;32233;49.500;7.764;2024-03-07T08:55:23;30.97;;;21.10;;
7432;SDS011;32233;49.500;7.764;2024-03-07T08:57:51;32.03;;;21.50;;
7432;SDS011;32233;49.500;7.764;2024-03-07T09:00:18;31.03;;;20.00;;
7432;SDS011;32233;49.500;7.764;2024-03-07T09:02:57;31.20;;;20.20;;
7432;SDS011;32233;49.500;7.764;2024-03-07T09:05:28;29.90;;;19.83;;
7432;SDS011;32233;49.500;7.764;2024-03-07T09:08:00;31.43;;;20.37;;
7432;SDS011;32233;49.500;7.764;2024-03-07T09:10:27;31.77;;;20.63;;
7432;SDS011;32233;49.500;7.764;2024-03-07T09:12:57;33.63;;;21.00;;
7432;SDS011;32233;49.500;7.764;2024-03-07T09:15:24;30.97;;;20.40;;
7432;SDS011;32233;49.500;7.764;2024-03-07T09:17:51;31.67;;;19.77;;
7432;SDS011;32233;49.500;7.764;2024-03-07T09:20:20;30.70;;;19.30;;
7432;SDS011;32233;49.500;7.764;2024-03-07T09:22:47;29.90;;;18.30;;
7432;SDS011;32233;49.500;7.764;2024-03-07T09:25:15;30.07;;;18.90;;
7432;SDS011;32233;49.500;7.764;2024-03-07T09:27:43;31.13;;;19.23;;
7432;SDS011;32233;49.500;7.764;2024-03-07T09:30:11;30.83;;;19.20;;
7432;SDS011;32233;49.500;7.764;2024-03-07T09:32:42;29.53;;;18.30;;
7432;SDS011;32233;49.500;7.764;2024-03-07T09:35:10;30.57;;;18.20;;
7432;SDS011;32233;49.500;7.764;2024-03-07T09:37:41;30.13;;;18.40;;
7432;SDS011;32233;49.500;7.764;2024-03-07T09:40:09;27.93;;;17.53;;
7432;SDS011;32233;49.500;7.764;2024-03-07T09:42:44;29.47;;;18.23;;
7432;SDS011;32233;49.500;7.764;2024-03-07T09:45:16;30.00;;;17.67;;
7432;SDS011;32233;49.500;7.764;2024-03-07T09:47:46;26.97;;;17.33;;
7432;SDS011;32233;49.500;7.764;2024-03-07T09:50:17;25.57;;;16.93;;
7432;SDS011;32233;49.500;7.764;2024-03-07T09:52:52;26.00;;;16.50;;
7432;SDS011;32233;49.500;7.764;2024-03-07T09:55:21;28.40;;;18.07;;
7432;SDS011;32233;49.500;7.764;2024-03-07T09:57:51;24.57;;;16.67;;
7432;SDS011;32233;49.500;7.764;2024-03-07T10:00:19;28.30;;;17.17;;
7432;SDS011;32233;49.500;7.764;2024-03-07T10:02:56;26.57;;;16.30;;
7432;SDS011;32233;49.500;7.764;2024-03-07T10:05:33;22.90;;;15.10;;
7432;SDS011;32233;49.500;7.764;2024-03-07T10:08:00;24.77;;;15.43;;
7432;SDS011;32233;49.500;7.764;2024-03-07T10:10:28;24.03;;;15.47;;
7432;SDS011;32233;49.500;7.764;2024-03-07T10:12:57;22.83;;;15.27;;
7432;SDS011;32233;49.500;7.764;2024-03-07T10:15:29;21.43;;;14.60;;
7432;SDS011;32233;49.500;7.764;2024-03-07T10:17:56;22.53;;;14.90;;
7432;SDS011;32233;49.500;7.764;2024-03-07T10:20:23;23.33;;;15.33;;
7432;SDS011;32233;49.500;7.764;2024-03-07T10:22:51;25.07;;;15.47;;
7432;SDS011;32233;49.500;7.764;2024-03-07T10:25:18;23.53;;;15.07;;
7432;SDS011;32233;49.500;7.764;2024-03-07T10:27:48;23.73;;;14.53;;
7432;SDS011;32233;49.500;7.764;2024-03-07T10:30:15;25.80;;;15.73;;
7432;SDS011;32233;49.500;7.764;2024-03-07T10:32:47;23.87;;;14.87;;
7432;SDS011;32233;49.500;7.764;2024-03-07T10:35:19;25.10;;;15.97;;
7432;SDS011;32233;49.500;7.764;2024-03-07T10:37:47;24.43;;;15.70;;
7432;SDS011;32233;49.500;7.764;2024-03-07T10:40:14;25.43;;;16.00;;
7432;SDS011;32233;49.500;7.764;2024-03-07T10:42:45;25.23;;;16.10;;
7432;SDS011;32233;49.500;7.764;2024-03-07T10:45:18;25.80;;;16.17;;
7432;SDS011;32233;49.500;7.764;2024-03-07T10:47:55;24.77;;;15.60;;
7432;SDS011;32233;49.500;7.764;2024-03-07T10:50:28;23.23;;;16.10;;
7432;SDS011;32233;49.500;7.764;2024-03-07T10:58:52;24.00;;;15.37;;
7432;SDS011;32233;49.500;7.764;2024-03-07T11:01:38;25.93;;;17.13;;
7432;SDS011;32233;49.500;7.764;2024-03-07T11:04:11;27.00;;;17.43;;
7432;SDS011;32233;49.500;7.764;2024-03-07T11:06:41;23.50;;;16.57;;
7432;SDS011;32233;49.500;7.764;2024-03-07T11:09:08;23.80;;;16.50;;
7432;SDS011;32233;49.500;7.764;2024-03-07T11:11:40;24.60;;;17.23;;
7432;SDS011;32233;49.500;7.764;2024-03-07T11:14:08;26.60;;;17.57;;
7432;SDS011;32233;49.500;7.764;2024-03-07T11:16:40;24.27;;;16.80;;
7432;SDS011;32233;49.500;7.764;2024-03-07T11:19:17;26.40;;;16.43;;
7432;SDS011;32233;49.500;7.764;2024-03-07T11:21:45;26.27;;;17.47;;
7432;SDS011;32233;49.500;7.764;2024-03-07T11:24:24;26.10;;;18.27;;
7432;SDS011;32233;49.500;7.764;2024-03-07T11:26:52;24.57;;;17.40;;
7432;SDS011;32233;49.500;7.764;2024-03-07T11:30:06;25.03;;;17.67;;
7432;SDS011;32233;49.500;7.764;2024-03-07T11:32:10;22.37;;;16.47;;
7432;SDS011;32233;49.500;7.764;2024-03-07T11:34:38;25.03;;;17.57;;
7432;SDS011;32233;49.500;7.764;2024-03-07T11:37:10;25.30;;;18.03;;
7432;SDS011;32233;49.500;7.764;2024-03-07T11:39:49;24.97;;;16.53;;
7432;SDS011;32233;49.500;7.764;2024-03-07T11:42:21;23.27;;;16.57;;
7432;SDS011;32233;49.500;7.764;2024-03-07T11:44:52;22.97;;;16.50;;
7432;SDS011;32233;49.500;7.764;2024-03-07T11:47:23;24.43;;;16.80;;
7432;SDS011;32233;49.500;7.764;2024-03-07T11:49:51;24.33;;;17.53;;
7432;SDS011;32233;49.500;7.764;2024-03-07T11:52:18;25.43;;;17.57;;
7432;SDS011;32233;49.500;7.764;2024-03-07T11:54:45;23.23;;;17.13;;
7432;SDS011;32233;49.500;7.764;2024-03-07T11:57:16;25.87;;;18.00;;
7432;SDS011;32233;49.500;7.764;2024-03-07T11:59:47;24.20;;;17.20;;
7432;SDS011;32233;49.500;7.764;2024-03-07T12:02:19;24.07;;;17.33;;
7432;SDS011;32233;49.500;7.764;2024-03-07T12:04:49;24.50;;;17.90;;
7432;SDS011;32233;49.500;7.764;2024-03-07T12:07:16;27.43;;;18.20;;
7432;SDS011;32233;49.500;7.764;2024-03-07T12:09:49;25.40;;;17.90;;
7432;SDS011;32233;49.500;7.764;2024-03-07T12:12:22;26.00;;;17.97;;
7432;SDS011;32233;49.500;7.764;2024-03-07T12:14:51;24.53;;;17.17;;
7432;SDS011;32233;49.500;7.764;2024-03-07T12:17:20;27.73;;;18.13;;
7432;SDS011;32233;49.500;7.764;2024-03-07T12:19:48;25.73;;;17.43;;
7432;SDS011;32233;49.500;7.764;2024-03-07T12:22:20;25.70;;;18.17;;
7432;SDS011;32233;49.500;7.764;2024-03-07T12:25:01;24.67;;;17.77;;
7432;SDS011;32233;49.500;7.764;2024-03-07T12:27:29;24.43;;;18.07;;
7432;SDS011;32233;49.500;7.764;2024-03-07T12:29:56;24.47;;;19.07;;
7432;SDS011;32233;49.500;7.764;2024-03-07T12:32:23;25.33;;;18.60;;
7432;SDS011;32233;49.500;7.764;2024-03-07T12:34:52;23.33;;;16.77;;
7432;SDS011;32233;49.500;7.764;2024-03-07T12:37:19;23.37;;;17.93;;
7432;SDS011;32233;49.500;7.764;2024-03-07T12:39:53;26.40;;;18.00;;
7432;SDS011;32233;49.500;7.764;2024-03-07T12:42:27;25.93;;;18.40;;
7432;SDS011;32233;49.500;7.764;2024-03-07T12:44:57;24.23;;;18.13;;
7432;SDS011;32233;49.500;7.764;2024-03-07T12:47:26;23.70;;;18.17;;
7432;SDS011;32233;49.500;7.764;2024-03-07T12:49:52;25.33;;;17.50;;
7432;SDS011;32233;49.500;7.764;2024-03-07T12:52:19;25.50;;;18.43;;
7432;SDS011;32233;49.500;7.764;2024-03-07T12:54:46;26.20;;;18.17;;
7432;SDS011;32233;49.500;7.764;2024-03-07T12:57:14;30.03;;;18.47;;
7432;SDS011;32233;49.500;7.764;2024-03-07T12:59:41;25.40;;;17.90;;
7432;SDS011;32233;49.500;7.764;2024-03-07T13:02:11;27.03;;;18.70;;
7432;SDS011;32233;49.500;7.764;2024-03-07T13:04:38;28.40;;;19.60;;
7432;SDS011;32233;49.500;7.764;2024-03-07T13:07:09;26.73;;;18.67;;
7432;SDS011;32233;49.500;7.764;2024-03-07T13:09:36;29.37;;;18.90;;
7432;SDS011;32233;49.500;7.764;2024-03-07T13:12:04;25.17;;;17.93;;
7432;SDS011;32233;49.500;7.764;2024-03-07T13:14:36;28.03;;;19.00;;
7432;SDS011;32233;49.500;7.764;2024-03-07T13:17:05;26.97;;;19.07;;
7432;SDS011;32233;49.500;7.764;2024-03-07T13:19:35;28.47;;;19.90;;
7432;SDS011;32233;49.500;7.764;2024-03-07T13:22:04;30.97;;;19.33;;
7432;SDS011;32233;49.500;7.764;2024-03-07T13:24:33;31.27;;;19.37;;
7432;SDS011;32233;49.500;7.764;2024-03-07T13:27:01;28.57;;;19.10;;
7432;SDS011;32233;49.500;7.764;2024-03-07T13:29:28;30.03;;;19.80;;
7432;SDS011;32233;49.500;7.764;2024-03-07T13:31:54;31.87;;;19.83;;
7432;SDS011;32233;49.500;7.764;2024-03-07T13:34:23;31.53;;;19.83;;
7432;SDS011;32233;49.500;7.764;2024-03-07T13:37:43;30.83;;;19.00;;
7432;SDS011;32233;49.500;7.764;2024-03-07T13:40:09;32.13;;;19.40;;
7432;SDS011;32233;49.500;7.764;2024-03-07T13:42:50;29.97;;;19.23;;
7432;SDS011;32233;49.500;7.764;2024-03-07T13:45:18;31.63;;;19.97;;
7432;SDS011;32233;49.500;7.764;2024-03-07T13:47:47;36.33;;;20.33;;
7432;SDS011;32233;49.500;7.764;2024-03-07T13:50:19;34.90;;;21.37;;
7432;SDS011;32233;49.500;7.764;2024-03-07T13:53:08;33.73;;;19.97;;
7432;SDS011;32233;49.500;7.764;2024-03-07T14:04:28;31.67;;;19.00;;
7432;SDS011;32233;49.500;7.764;2024-03-07T14:18:32;31.80;;;19.00;;
7432;SDS011;32233;49.500;7.764;2024-03-07T14:24:56;32.63;;;19.37;;
7432;SDS011;32233;49.500;7.764;2024-03-07T14:27:50;32.30;;;18.53;;
7432;SDS011;32233;49.500;7.764;2024-03-07T14:30:40;30.20;;;17.73;;
7432;SDS011;32233;49.500;7.764;2024-03-07T14:33:11;28.77;;;17.47;;
7432;SDS011;32233;49.500;7.764;2024-03-07T14:41:06;32.97;;;17.93;;
7432;SDS011;32233;49.500;7.764;2024-03-07T14:43:35;28.47;;;17.67;;
7432;SDS011;32233;49.500;7.764;2024-03-07T14:46:01;32.37;;;19.17;;
7432;SDS011;32233;49.500;7.764;2024-03-07T14:48:28;33.53;;;18.73;;
7432;SDS011;32233;49.500;7.764;2024-03-07T14:50:55;29.97;;;18.30;;
7432;SDS011;32233;49.500;7.764;2024-03-07T14:53:22;28.67;;;18.43;;
7432;SDS011;32233;49.500;7.764;2024-03-07T14:55:49;28.63;;;17.60;;
7432;SDS011;32233;49.500;7.764;2024-03-07T14:58:16;27.67;;;17.73;;
7432;SDS011;32233;49.500;7.764;2024-03-07T15:00:43;28.50;;;17.27;;
7432;SDS011;32233;49.500;7.764;2024-03-07T15:03:23;30.13;;;17.90;;
7432;SDS011;32233;49.500;7.764;2024-03-07T15:05:52;31.13;;;17.80;;
7432;SDS011;32233;49.500;7.764;2024-03-07T15:08:19;29.27;;;17.53;;
7432;SDS011;32233;49.500;7.764;2024-03-07T15:10:52;28.37;;;17.83;;
7432;SDS011;32233;49.500;7.764;2024-03-07T15:13:23;27.37;;;16.97;;
7432;SDS011;32233;49.500;7.764;2024-03-07T15:15:50;26.00;;;16.27;;
7432;SDS011;32233;49.500;7.764;2024-03-07T15:18:17;26.60;;;16.57;;